createdAt,value
2022-11-29T00:01:06.741Z,7.18
2022-11-29T00:03:35.091Z,7.57
2022-11-29T00:06:05.611Z,7.40
2022-11-29T00:08:32.182Z,8.20
2022-11-29T00:11:06.842Z,7.50
2022-11-29T00:13:33.788Z,7.25
2022-11-29T00:16:09.377Z,6.95
2022-11-29T00:18:36.735Z,7.60
2022-11-29T00:21:07.973Z,7.90
2022-11-29T00:23:35.260Z,7.35
2022-11-29T00:26:07.271Z,7.90
2022-11-29T00:28:35.700Z,7.45
2022-11-29T00:31:16.814Z,7.43
2022-11-29T00:33:43.586Z,7.30
2022-11-29T00:36:10.942Z,7.65
2022-11-29T00:38:37.865Z,7.60
2022-11-29T00:41:04.833Z,7.55
2022-11-29T00:43:31.490Z,7.18
2022-11-29T00:45:58.060Z,8.30
2022-11-29T00:48:25.963Z,7.75
2022-11-29T00:50:52.880Z,7.75
2022-11-29T00:53:19.910Z,7.88
2022-11-29T00:55:51.063Z,7.95
2022-11-29T00:58:18.356Z,8.57
2022-11-29T01:00:45.110Z,7.55
2022-11-29T01:03:11.942Z,8.88
2022-11-29T01:05:38.588Z,8.50
2022-11-29T01:08:05.513Z,8.05
2022-11-29T01:10:32.114Z,8.63
2022-11-29T01:12:58.863Z,8.38
2022-11-29T01:15:25.883Z,8.43
2022-11-29T01:17:53.464Z,8.57
2022-11-29T01:20:22.991Z,7.97
2022-11-29T01:22:49.737Z,7.80
2022-11-29T01:25:16.507Z,8.23
2022-11-29T01:27:43.164Z,8.52
2022-11-29T01:30:10.592Z,7.90
2022-11-29T01:32:38.005Z,8.77
2022-11-29T01:35:06.156Z,8.40
2022-11-29T01:37:32.818Z,8.00
2022-11-29T01:39:59.435Z,8.20
2022-11-29T01:42:26.041Z,9.18
2022-11-29T01:45:13.779Z,8.18
2022-11-29T01:47:45.704Z,8.07
2022-11-29T01:50:13.061Z,8.25
2022-11-29T01:52:40.139Z,8.45
2022-11-29T01:55:08.359Z,7.78
2022-11-29T01:57:39.423Z,8.07
2022-11-29T02:00:10.907Z,7.75
2022-11-29T02:02:54.091Z,8.68
2022-11-29T02:05:21.718Z,8.48
2022-11-29T02:07:52.081Z,8.23
2022-11-29T02:10:19.624Z,8.30
2022-11-29T02:13:06.136Z,8.45
2022-11-29T02:16:08.732Z,8.23
2022-11-29T02:18:53.699Z,8.52
2022-11-29T02:21:38.362Z,8.65
2022-11-29T02:24:32.549Z,8.77
2022-11-29T02:27:11.761Z,7.82
2022-11-29T02:29:53.624Z,8.63
2022-11-29T02:32:41.956Z,8.48
2022-11-29T02:35:44.028Z,8.68
2022-11-29T02:38:35.099Z,8.93
2022-11-29T02:41:44.855Z,9.45
2022-11-29T02:44:22.914Z,8.45
2022-11-29T02:47:11.451Z,8.85
2022-11-29T02:49:59.550Z,9.45
2022-11-29T02:52:36.480Z,9.48
2022-11-29T02:55:20.191Z,9.43
2022-11-29T02:58:04.227Z,9.20
2022-11-29T03:00:35.469Z,9.48
2022-11-29T03:03:12.569Z,9.27
2022-11-29T03:05:47.054Z,9.07
2022-11-29T03:08:47.111Z,8.80
2022-11-29T03:11:56.921Z,8.43
2022-11-29T03:14:40.642Z,9.93
2022-11-29T03:17:19.530Z,10.32
2022-11-29T03:20:06.872Z,8.77
2022-11-29T03:22:36.204Z,9.75
2022-11-29T03:25:33.546Z,9.27
2022-11-29T03:28:11.128Z,9.77
2022-11-29T03:30:44.035Z,10.00
2022-11-29T03:33:22.478Z,9.90
2022-11-29T03:36:23.111Z,10.23
2022-11-29T03:38:54.959Z,9.73
2022-11-29T03:41:36.737Z,9.73
2022-11-29T03:44:17.989Z,10.15
2022-11-29T03:47:11.600Z,9.70
2022-11-29T03:49:56.282Z,10.43
2022-11-29T03:52:53.773Z,10.40
2022-11-29T03:55:46.502Z,10.75
2022-11-29T03:58:18.912Z,10.18
2022-11-29T04:00:48.515Z,10.75
2022-11-29T04:03:33.887Z,10.30
2022-11-29T04:06:09.625Z,11.57
2022-11-29T04:09:04.104Z,10.80
2022-11-29T04:11:54.935Z,10.93
2022-11-29T04:14:52.976Z,11.43
2022-11-29T04:17:41.358Z,11.48
2022-11-29T04:20:23.080Z,9.98
2022-11-29T04:23:08.472Z,10.93
2022-11-29T04:26:02.853Z,12.00
2022-11-29T04:28:40.251Z,10.65
2022-11-29T04:31:25.364Z,11.02
2022-11-29T04:34:02.721Z,11.20
2022-11-29T04:36:53.872Z,10.98
2022-11-29T04:39:29.132Z,11.40
2022-11-29T04:42:04.618Z,11.20
2022-11-29T04:44:58.782Z,11.55
2022-11-29T04:47:46.592Z,11.00
2022-11-29T04:50:41.172Z,11.20
2022-11-29T04:53:46.597Z,11.07
2022-11-29T04:56:22.076Z,11.45
2022-11-29T04:59:07.247Z,11.57
2022-11-29T05:01:54.649Z,11.00
2022-11-29T05:04:28.184Z,11.90
2022-11-29T05:07:12.027Z,11.98
2022-11-29T05:09:47.753Z,10.77
2022-11-29T05:12:34.191Z,12.10
2022-11-29T05:15:38.592Z,11.80
2022-11-29T05:18:32.673Z,12.27
2022-11-29T05:21:09.393Z,11.45
2022-11-29T05:23:57.348Z,11.63
2022-11-29T05:26:49.309Z,11.45
2022-11-29T05:29:31.355Z,11.40
2022-11-29T05:32:28.524Z,12.23
2022-11-29T05:35:11.091Z,12.63
2022-11-29T05:37:49.376Z,11.13
2022-11-29T05:40:34.802Z,12.63
2022-11-29T05:43:19.748Z,11.38
2022-11-29T05:45:59.197Z,12.60
2022-11-29T05:48:45.401Z,11.98
2022-11-29T05:51:39.201Z,12.35
2022-11-29T05:54:30.988Z,11.95
2022-11-29T05:57:31.358Z,12.45
2022-11-29T06:00:01.224Z,11.68
2022-11-29T06:02:27.757Z,11.60
2022-11-29T06:05:03.917Z,11.80
2022-11-29T06:07:55.062Z,12.25
2022-11-29T06:10:26.755Z,12.45
2022-11-29T06:13:04.123Z,11.77
2022-11-29T06:15:48.623Z,13.00
2022-11-29T06:18:25.998Z,11.60
2022-11-29T06:21:02.461Z,12.27
2022-11-29T06:23:44.318Z,11.75
2022-11-29T06:26:25.167Z,11.10
2022-11-29T06:29:22.111Z,11.98
2022-11-29T06:31:58.476Z,11.95
2022-11-29T06:34:54.852Z,11.30
2022-11-29T06:37:29.482Z,11.63
2022-11-29T06:39:56.352Z,11.70
2022-11-29T06:42:22.892Z,11.68
2022-11-29T06:44:50.070Z,12.07
2022-11-29T06:47:29.135Z,11.73
2022-11-29T06:50:23.327Z,11.70
2022-11-29T06:53:08.256Z,11.40
2022-11-29T06:56:07.940Z,11.52
2022-11-29T06:58:44.567Z,11.45
2022-11-29T07:01:23.526Z,10.82
2022-11-29T07:04:02.467Z,11.60
2022-11-29T07:06:29.414Z,11.00
2022-11-29T07:09:03.133Z,10.98
2022-11-29T07:11:30.077Z,11.90
2022-11-29T07:13:57.053Z,11.07
2022-11-29T07:16:39.270Z,12.45
2022-11-29T07:19:05.912Z,12.18
2022-11-29T07:21:43.225Z,11.60
2022-11-29T07:24:47.385Z,11.05
2022-11-29T07:27:23.942Z,11.57
2022-11-29T07:30:12.073Z,11.20
2022-11-29T07:32:50.063Z,11.98
2022-11-29T07:35:30.009Z,11.55
2022-11-29T07:38:24.738Z,11.95
2022-11-29T07:41:08.136Z,11.40
2022-11-29T07:43:52.019Z,11.93
2022-11-29T07:46:18.652Z,11.43
2022-11-29T07:48:45.347Z,11.93
2022-11-29T07:51:12.534Z,12.10
2022-11-29T07:53:42.992Z,11.90
2022-11-29T07:56:09.997Z,12.05
2022-11-29T07:58:36.640Z,12.10
2022-11-29T08:01:03.554Z,11.85
2022-11-29T08:03:30.292Z,11.73
2022-11-29T08:05:56.768Z,12.05
2022-11-29T08:08:23.323Z,12.18
2022-11-29T08:10:50.035Z,12.05
2022-11-29T08:13:19.957Z,12.00
2022-11-29T08:15:47.521Z,11.43
2022-11-29T08:18:15.478Z,12.25
2022-11-29T08:20:42.381Z,12.02
2022-11-29T08:23:12.200Z,11.68
2022-11-29T08:25:39.147Z,11.82
2022-11-29T08:28:06.496Z,12.45
2022-11-29T08:30:33.268Z,11.90
2022-11-29T08:33:00.288Z,12.20
2022-11-29T08:35:26.997Z,11.48
2022-11-29T08:37:54.601Z,11.73
2022-11-29T08:40:21.236Z,12.30
2022-11-29T08:42:47.733Z,12.63
2022-11-29T08:45:14.561Z,12.02
2022-11-29T08:47:42.365Z,13.02
2022-11-29T08:50:18.184Z,12.07
2022-11-29T08:53:07.633Z,11.95
2022-11-29T08:55:43.165Z,11.70
2022-11-29T08:58:12.942Z,12.32
2022-11-29T09:00:41.004Z,12.75
2022-11-29T09:03:26.783Z,12.63
2022-11-29T09:05:53.704Z,11.82
2022-11-29T09:08:20.643Z,11.98
2022-11-29T09:10:47.543Z,12.38
2022-11-29T09:13:14.674Z,12.18
2022-11-29T09:15:42.483Z,12.55
2022-11-29T09:18:09.355Z,11.95
2022-11-29T09:20:35.915Z,13.32
2022-11-29T09:23:02.634Z,13.25
2022-11-29T09:25:29.636Z,13.02
2022-11-29T09:28:01.288Z,13.27
2022-11-29T09:30:31.288Z,13.80
2022-11-29T09:33:00.823Z,13.10
2022-11-29T09:35:27.441Z,13.35
2022-11-29T09:37:54.180Z,12.98
2022-11-29T09:40:25.751Z,13.65
2022-11-29T09:43:24.564Z,14.20
2022-11-29T09:45:59.501Z,14.07
2022-11-29T09:48:33.219Z,13.43
2022-11-29T09:51:30.354Z,14.10
2022-11-29T09:54:19.026Z,14.05
2022-11-29T09:56:50.178Z,13.45
2022-11-29T09:59:23.407Z,14.05
2022-11-29T10:01:59.367Z,14.55
2022-11-29T10:04:31.081Z,14.38
2022-11-29T10:07:06.345Z,14.82
2022-11-29T10:09:40.652Z,14.68
2022-11-29T10:12:14.732Z,13.82
2022-11-29T10:14:45.869Z,15.07
2022-11-29T10:17:31.666Z,14.25
2022-11-29T10:20:30.400Z,13.48
2022-11-29T10:23:09.078Z,14.52
2022-11-29T10:25:55.868Z,15.07
2022-11-29T10:28:26.616Z,14.32
2022-11-29T10:30:56.118Z,15.30
2022-11-29T10:33:28.653Z,14.15
2022-11-29T10:35:58.718Z,14.35
2022-11-29T10:38:32.674Z,13.80
2022-11-29T10:41:07.669Z,14.45
2022-11-29T10:43:34.750Z,14.85
2022-11-29T10:46:02.546Z,14.52
2022-11-29T10:48:33.375Z,14.65
2022-11-29T10:51:01.853Z,14.68
2022-11-29T10:53:35.876Z,14.85
2022-11-29T10:56:07.350Z,14.57
2022-11-29T10:58:34.187Z,15.02
2022-11-29T11:01:08.874Z,14.35
2022-11-29T11:03:53.124Z,15.90
2022-11-29T11:06:27.496Z,15.65
2022-11-29T11:09:11.326Z,15.45
2022-11-29T11:11:39.398Z,16.27
2022-11-29T11:14:31.131Z,15.88
2022-11-29T11:17:14.584Z,15.93
2022-11-29T11:19:41.717Z,15.70
2022-11-29T11:22:21.778Z,17.38
2022-11-29T11:24:58.038Z,16.67
2022-11-29T11:27:35.440Z,16.25
2022-11-29T11:30:05.487Z,16.60
2022-11-29T11:32:32.007Z,17.48
2022-11-29T11:35:01.342Z,16.38
2022-11-29T11:37:30.547Z,16.20
2022-11-29T11:40:00.147Z,16.60
2022-11-29T11:42:38.853Z,15.60
2022-11-29T11:45:30.038Z,16.80
2022-11-29T11:47:59.688Z,16.15
2022-11-29T11:50:51.577Z,16.90
2022-11-29T11:53:26.636Z,17.13
2022-11-29T11:55:57.903Z,17.38
2022-11-29T11:58:46.837Z,17.33
2022-11-29T12:01:15.151Z,17.27
2022-11-29T12:04:01.838Z,17.13
2022-11-29T12:06:42.037Z,17.45
2022-11-29T12:09:08.554Z,17.58
2022-11-29T12:12:01.445Z,17.40
2022-11-29T12:14:40.330Z,17.48
2022-11-29T12:17:19.964Z,17.52
2022-11-29T12:20:04.315Z,17.25
2022-11-29T12:22:42.666Z,16.23
2022-11-29T12:25:20.849Z,16.92
2022-11-29T12:27:49.976Z,17.05
2022-11-29T12:30:18.313Z,17.45
2022-11-29T12:33:18.185Z,17.58
2022-11-29T12:35:56.137Z,17.17
2022-11-29T12:38:46.595Z,16.63
2022-11-29T12:41:49.505Z,17.02
2022-11-29T12:44:28.217Z,17.65
2022-11-29T12:47:34.713Z,17.85
2022-11-29T12:50:07.591Z,16.27
2022-11-29T12:52:46.350Z,16.85
2022-11-29T12:55:32.458Z,17.25
2022-11-29T12:58:15.342Z,14.80
2022-11-29T13:00:54.631Z,16.20
2022-11-29T13:03:30.923Z,16.45
2022-11-29T13:06:37.325Z,17.55
2022-11-29T13:09:43.551Z,17.38
2022-11-29T13:12:18.026Z,16.95
2022-11-29T13:15:13.544Z,18.40
2022-11-29T13:17:53.176Z,17.25
2022-11-29T13:20:32.502Z,18.70
2022-11-29T13:23:12.248Z,17.50
2022-11-29T13:25:43.366Z,16.35
2022-11-29T13:28:27.740Z,17.30
2022-11-29T13:31:00.199Z,16.30
2022-11-29T13:33:32.787Z,16.67
2022-11-29T13:36:20.497Z,16.60
2022-11-29T13:39:32.456Z,15.82
2022-11-29T13:42:13.965Z,15.23
2022-11-29T13:44:52.896Z,16.77
2022-11-29T13:47:20.109Z,16.40
2022-11-29T13:50:03.976Z,17.25
2022-11-29T13:52:44.204Z,16.88
2022-11-29T13:55:11.395Z,17.85
2022-11-29T13:58:15.364Z,16.27
2022-11-29T14:00:44.373Z,17.60
2022-11-29T14:03:23.231Z,16.25
2022-11-29T14:05:52.122Z,18.17
2022-11-29T14:08:55.186Z,18.08
2022-11-29T14:11:57.317Z,17.23
2022-11-29T14:15:07.545Z,17.80
2022-11-29T14:17:34.209Z,17.77
2022-11-29T14:20:22.775Z,17.17
2022-11-29T14:23:04.475Z,17.00
2022-11-29T14:25:53.963Z,17.65
2022-11-29T14:28:23.455Z,16.80
2022-11-29T14:31:03.704Z,18.17
2022-11-29T14:34:02.273Z,17.40
2022-11-29T14:36:53.440Z,18.08
2022-11-29T14:39:25.836Z,17.40
2022-11-29T14:42:18.439Z,17.48
2022-11-29T14:44:58.354Z,18.63
2022-11-29T14:47:32.926Z,17.65
2022-11-29T14:50:04.065Z,17.95
2022-11-29T14:52:35.845Z,17.75
2022-11-29T14:55:08.170Z,19.08
2022-11-29T14:57:49.985Z,18.25
2022-11-29T15:00:21.526Z,17.48
2022-11-29T15:02:56.431Z,18.55
2022-11-29T15:05:46.139Z,18.85
2022-11-29T15:08:35.014Z,18.23
2022-11-29T15:11:27.127Z,17.83
2022-11-29T15:14:17.124Z,18.90
2022-11-29T15:17:01.626Z,18.90
2022-11-29T15:19:52.140Z,18.20
2022-11-29T15:22:22.373Z,18.25
2022-11-29T15:24:54.839Z,18.35
2022-11-29T15:27:22.141Z,19.60
2022-11-29T15:29:49.056Z,19.15
2022-11-29T15:32:26.027Z,19.33
2022-11-29T15:34:55.404Z,17.75
2022-11-29T15:37:25.049Z,18.88
2022-11-29T15:40:18.592Z,17.65
2022-11-29T15:42:50.684Z,17.73
2022-11-29T15:45:26.717Z,19.55
2022-11-29T15:47:54.358Z,19.13
2022-11-29T15:50:32.555Z,19.52
2022-11-29T15:53:03.252Z,18.98
2022-11-29T15:55:30.640Z,19.25
2022-11-29T15:58:07.011Z,19.10
2022-11-29T16:00:35.918Z,20.60
2022-11-29T16:03:05.202Z,19.73
2022-11-29T16:05:35.093Z,20.30
2022-11-29T16:08:05.681Z,21.30
2022-11-29T16:10:43.586Z,21.50
2022-11-29T16:13:26.525Z,21.30
2022-11-29T16:16:19.497Z,21.95
2022-11-29T16:18:47.970Z,20.58
2022-11-29T16:21:30.335Z,21.40
2022-11-29T16:23:58.316Z,20.02
2022-11-29T16:26:39.123Z,21.00
2022-11-29T16:29:06.210Z,21.85
2022-11-29T16:31:37.999Z,21.58
2022-11-29T16:34:15.905Z,21.98
2022-11-29T16:36:42.442Z,22.17
2022-11-29T16:39:23.069Z,21.73
2022-11-29T16:42:08.418Z,21.05
2022-11-29T16:44:41.357Z,21.40
2022-11-29T16:47:22.423Z,21.02
2022-11-29T16:50:14.154Z,25.92
2022-11-29T16:52:41.282Z,21.38
2022-11-29T16:55:08.239Z,21.30
2022-11-29T16:57:36.095Z,21.17
2022-11-29T17:00:10.516Z,21.33
2022-11-29T17:02:37.259Z,21.13
2022-11-29T17:05:04.132Z,22.48
2022-11-29T17:07:33.764Z,22.45
2022-11-29T17:10:00.390Z,22.45
2022-11-29T17:12:26.904Z,22.23
2022-11-29T17:14:53.686Z,22.73
2022-11-29T17:17:20.349Z,22.88
2022-11-29T17:19:46.984Z,20.95
2022-11-29T17:22:13.583Z,21.38
2022-11-29T17:24:44.925Z,21.95
2022-11-29T17:27:14.278Z,23.30
2022-11-29T17:29:40.762Z,23.35
2022-11-29T17:32:07.332Z,22.63
2022-11-29T17:34:33.933Z,21.88
2022-11-29T17:37:00.756Z,21.48
2022-11-29T17:39:27.334Z,22.30
2022-11-29T17:41:53.885Z,21.90
2022-11-29T17:44:20.471Z,19.77
2022-11-29T17:46:47.055Z,20.70
2022-11-29T17:49:18.592Z,21.15
2022-11-29T17:51:53.407Z,21.65
2022-11-29T17:54:21.329Z,22.10
2022-11-29T17:56:48.168Z,22.05
2022-11-29T17:59:14.731Z,21.98
2022-11-29T18:01:41.488Z,25.25
2022-11-29T18:04:08.378Z,23.90
2022-11-29T18:06:37.980Z,21.08
2022-11-29T18:09:06.483Z,20.70
2022-11-29T18:11:44.932Z,20.60
2022-11-29T18:14:16.383Z,21.05
2022-11-29T18:16:45.439Z,20.20
2022-11-29T18:19:14.497Z,19.67
2022-11-29T18:21:41.115Z,20.42
2022-11-29T18:24:09.601Z,19.42
2022-11-29T18:26:37.458Z,20.55
2022-11-29T18:29:06.068Z,20.98
2022-11-29T18:31:35.753Z,20.65
2022-11-29T18:34:07.162Z,21.27
2022-11-29T18:36:38.397Z,19.10
2022-11-29T18:39:08.599Z,19.00
2022-11-29T18:41:36.587Z,18.15
2022-11-29T18:44:08.983Z,20.58
2022-11-29T18:46:37.358Z,19.40
2022-11-29T18:49:07.441Z,18.90
2022-11-29T18:51:35.171Z,19.33
2022-11-29T18:54:02.576Z,19.15
2022-11-29T18:56:31.386Z,18.30
2022-11-29T18:59:18.359Z,18.70
2022-11-29T19:01:47.656Z,18.10
2022-11-29T19:04:18.442Z,18.30
2022-11-29T19:06:45.476Z,17.80
2022-11-29T19:09:18.434Z,17.58
2022-11-29T19:11:45.011Z,17.88
2022-11-29T19:14:12.977Z,18.45
2022-11-29T19:16:45.689Z,19.33
2022-11-29T19:19:12.290Z,17.95
2022-11-29T19:21:40.700Z,18.25
2022-11-29T19:24:14.214Z,18.23
2022-11-29T19:26:46.180Z,16.15
2022-11-29T19:29:14.167Z,17.45
2022-11-29T19:31:40.975Z,17.05
2022-11-29T19:34:07.907Z,16.42
2022-11-29T19:36:37.010Z,15.57
2022-11-29T19:39:03.655Z,16.15
2022-11-29T19:41:33.144Z,17.02
2022-11-29T19:44:02.688Z,17.05
2022-11-29T19:46:31.867Z,21.20
2022-11-29T19:48:59.345Z,18.70
2022-11-29T19:51:28.232Z,16.33
2022-11-29T19:53:59.191Z,17.80
2022-11-29T19:56:26.383Z,17.50
2022-11-29T19:58:53.188Z,16.88
2022-11-29T20:01:25.326Z,18.02
2022-11-29T20:03:52.885Z,16.73
2022-11-29T20:06:19.731Z,16.73
2022-11-29T20:08:46.745Z,16.23
2022-11-29T20:11:19.416Z,15.73
2022-11-29T20:13:54.128Z,17.02
2022-11-29T20:16:22.157Z,15.57
2022-11-29T20:18:51.279Z,15.63
2022-11-29T20:21:20.580Z,16.58
2022-11-29T20:23:48.778Z,16.38
2022-11-29T20:26:19.141Z,16.25
2022-11-29T20:28:47.069Z,15.88
2022-11-29T20:31:17.439Z,15.52
2022-11-29T20:33:45.792Z,15.27
2022-11-29T20:36:37.890Z,15.65
2022-11-29T20:39:10.359Z,14.90
2022-11-29T20:41:45.278Z,14.50
2022-11-29T20:44:19.752Z,15.35
2022-11-29T20:46:47.019Z,15.35
2022-11-29T20:49:15.184Z,15.50
2022-11-29T20:51:55.608Z,14.75
2022-11-29T20:54:22.312Z,15.48
2022-11-29T20:56:49.139Z,14.00
2022-11-29T20:59:15.892Z,21.83
2022-11-29T21:01:43.087Z,14.25
2022-11-29T21:04:09.964Z,14.73
2022-11-29T21:06:37.971Z,14.60
2022-11-29T21:09:05.162Z,14.40
2022-11-29T21:11:32.362Z,14.75
2022-11-29T21:14:03.519Z,14.52
2022-11-29T21:16:31.983Z,15.20
2022-11-29T21:19:01.479Z,14.93
2022-11-29T21:21:30.380Z,14.45
2022-11-29T21:24:14.357Z,14.85
2022-11-29T21:26:51.137Z,14.20
2022-11-29T21:29:20.408Z,14.80
2022-11-29T21:31:51.979Z,15.45
2022-11-29T21:34:19.686Z,14.75
2022-11-29T21:36:55.025Z,14.50
2022-11-29T21:39:22.680Z,15.95
2022-11-29T21:41:49.508Z,14.45
2022-11-29T21:44:16.132Z,14.10
2022-11-29T21:46:42.707Z,13.77
2022-11-29T21:49:09.617Z,13.73
2022-11-29T21:51:36.207Z,13.20
2022-11-29T21:54:03.283Z,13.73
2022-11-29T21:56:30.329Z,14.02
2022-11-29T21:58:57.075Z,13.32
2022-11-29T22:01:23.925Z,13.43
2022-11-29T22:09:10.427Z,13.93
2022-11-29T22:11:36.605Z,13.45
2022-11-29T22:14:14.893Z,13.43
2022-11-29T22:16:55.161Z,14.52
2022-11-29T22:19:25.152Z,13.25
2022-11-29T22:21:53.005Z,13.00
2022-11-29T22:24:21.982Z,13.02
2022-11-29T22:31:54.727Z,13.32
2022-11-29T22:34:22.730Z,12.35
2022-11-29T22:36:49.355Z,12.63
2022-11-29T22:39:16.173Z,12.88
2022-11-29T22:41:43.364Z,12.73
2022-11-29T22:44:10.167Z,17.13
2022-11-29T22:46:39.255Z,12.48
2022-11-29T22:49:06.031Z,12.65
2022-11-29T22:51:35.025Z,23.70
2022-11-29T22:54:05.427Z,12.55
2022-11-29T22:56:35.732Z,14.20
2022-11-29T22:59:02.584Z,13.05
2022-11-29T23:01:30.864Z,13.00
2022-11-29T23:04:00.183Z,14.15
2022-11-29T23:06:35.217Z,13.68
2022-11-29T23:09:10.578Z,13.45
2022-11-29T23:11:37.892Z,13.20
2022-11-29T23:14:04.593Z,12.52
2022-11-29T23:16:32.797Z,13.00
2022-11-29T23:19:00.542Z,12.35
2022-11-29T23:21:36.106Z,12.20
2022-11-29T23:24:02.781Z,14.48
2022-11-29T23:26:37.862Z,12.60
2022-11-29T23:29:08.885Z,15.35
2022-11-29T23:31:35.568Z,12.20
2022-11-29T23:34:03.050Z,11.90
2022-11-29T23:36:30.116Z,12.00
2022-11-29T23:38:56.732Z,12.85
2022-11-29T23:41:23.315Z,12.18
2022-11-29T23:43:49.921Z,13.65
2022-11-29T23:46:21.595Z,18.10
2022-11-29T23:48:48.697Z,12.20
2022-11-29T23:51:16.281Z,12.05
2022-11-29T23:53:43.251Z,12.77
2022-11-29T23:56:14.890Z,11.65
2022-11-29T23:58:42.666Z,11.70
